Time;durP1;ratioP1;P1;durP2;ratioP2;P2;SDS_P1;SDS_P2;PMS_P1;PMS_P2;Temp;Humidity;BMP_temperature;BMP_pressure;BME280_temperature;BME280_humidity;BME280_pressure;Samples;Min_cycle;Max_cycle;Signal;HPM_P1;HPM_P2
2021/11/01 00:01:20;;;;;;;4.50;3.80;;;21.60;57.40;;;;;;4889082;29;20463;-79
2021/11/01 00:03:49;;;;;;;3.83;3.40;;;21.60;56.90;;;;;;4896993;29;20481;-80
2021/11/01 00:06:17;;;;;;;4.00;3.60;;;21.60;56.90;;;;;;4891366;29;20436;-80
2021/11/01 00:08:46;;;;;;;4.17;3.63;;;21.50;56.90;;;;;;4889516;29;20462;-80
2021/11/01 00:11:14;;;;;;;5.27;3.43;;;21.50;56.90;;;;;;4897366;29;20486;-80
2021/11/01 00:13:42;;;;;;;6.83;3.87;;;21.50;56.90;;;;;;4894259;29;20470;-77
2021/11/01 00:16:10;;;;;;;4.90;3.57;;;21.50;56.90;;;;;;4894303;29;20454;-83
2021/11/01 00:18:39;;;;;;;4.77;3.20;;;21.50;57.00;;;;;;4895884;29;20454;-82
2021/11/01 00:21:07;;;;;;;3.93;3.47;;;21.50;57.10;;;;;;4897968;29;20497;-80
2021/11/01 00:23:35;;;;;;;6.70;3.90;;;21.50;57.00;;;;;;4898548;29;20506;-81
2021/11/01 00:26:04;;;;;;;4.33;3.60;;;21.40;56.90;;;;;;4898423;29;20428;-79
2021/11/01 00:28:33;;;;;;;4.33;3.70;;;21.40;56.90;;;;;;4902589;29;20446;-80
2021/11/01 00:31:01;;;;;;;4.07;3.20;;;21.40;56.90;;;;;;4906721;29;20497;-79
2021/11/01 00:33:29;;;;;;;6.47;3.60;;;21.40;56.90;;;;;;4906408;29;20480;-80
2021/11/01 00:35:57;;;;;;;7.37;3.83;;;21.40;56.90;;;;;;4908295;29;20459;-80
2021/11/01 00:38:26;;;;;;;5.43;3.80;;;21.30;56.80;;;;;;4907611;29;20482;-79
2021/11/01 00:40:54;;;;;;;7.37;3.70;;;21.30;56.90;;;;;;4907640;29;20527;-81
2021/11/01 00:43:24;;;;;;;4.50;3.67;;;21.30;56.80;;;;;;4908232;29;20441;-79
2021/11/01 00:45:52;;;;;;;5.27;3.57;;;21.30;57.00;;;;;;4906215;29;20432;-79
2021/11/01 00:48:20;;;;;;;4.03;3.17;;;21.30;56.90;;;;;;4909798;29;20508;-80
2021/11/01 00:50:48;;;;;;;4.30;3.57;;;21.30;57.00;;;;;;4905812;29;20501;-79
2021/11/01 00:53:16;;;;;;;5.30;3.60;;;21.20;56.80;;;;;;4903558;29;20524;-79
2021/11/01 00:59:26;;;;;;;6.73;3.33;;;21.20;56.80;;;;;;4891290;29;20412;-80
2021/11/01 01:01:54;;;;;;;4.10;3.00;;;21.10;56.90;;;;;;4904892;29;20465;-79
2021/11/01 01:04:24;;;;;;;5.83;3.33;;;21.10;56.80;;;;;;4905024;29;20481;-80
2021/11/01 01:06:52;;;;;;;8.93;3.73;;;21.10;56.80;;;;;;4897694;29;20435;-80
2021/11/01 01:09:20;;;;;;;6.70;3.50;;;21.10;56.80;;;;;;4892228;29;20438;-80
2021/11/01 01:11:49;;;;;;;6.43;3.87;;;21.10;56.80;;;;;;4897604;29;20477;-80
2021/11/01 01:14:25;;;;;;;4.23;2.83;;;21.10;56.80;;;;;;4897277;29;20458;-79
2021/11/01 01:16:56;;;;;;;5.77;3.07;;;21.00;56.70;;;;;;4883796;29;20471;-79
2021/11/01 01:19:30;;;;;;;6.23;3.43;;;21.00;56.70;;;;;;4878201;29;20421;-79
2021/11/01 01:22:20;;;;;;;4.23;3.20;;;21.00;56.70;;;;;;4878779;29;20454;-81
2021/11/01 01:24:48;;;;;;;3.63;2.70;;;21.00;56.70;;;;;;4879008;29;20458;-80
2021/11/01 01:27:16;;;;;;;4.67;3.30;;;21.00;56.80;;;;;;4878893;29;20505;-81
2021/11/01 01:29:44;;;;;;;10.87;4.20;;;20.90;56.70;;;;;;4878570;29;20513;-80
2021/11/01 01:32:14;;;;;;;4.50;3.40;;;20.90;56.70;;;;;;4878582;29;20520;-81
2021/11/01 01:34:42;;;;;;;7.73;3.63;;;20.90;56.60;;;;;;4878670;29;20442;-81
2021/11/01 01:37:10;;;;;;;5.97;3.53;;;20.90;56.80;;;;;;4878933;29;20561;-80
2021/11/01 01:39:38;;;;;;;10.00;3.10;;;20.90;56.70;;;;;;4878365;29;20439;-80
2021/11/01 01:42:06;;;;;;;6.63;3.90;;;20.90;56.70;;;;;;4882284;29;20543;-80
2021/11/01 01:44:37;;;;;;;7.07;3.13;;;20.90;56.70;;;;;;4882304;29;20453;-80
2021/11/01 01:47:06;;;;;;;5.90;3.37;;;20.90;56.70;;;;;;4882198;29;20485;-80
2021/11/01 01:49:36;;;;;;;4.20;2.73;;;20.90;56.60;;;;;;4882841;29;20429;-80
2021/11/01 01:52:04;;;;;;;5.53;3.67;;;20.80;56.60;;;;;;4900572;29;20473;-80
2021/11/01 01:54:32;;;;;;;6.07;3.27;;;20.80;56.70;;;;;;4900574;29;20506;-81
2021/11/01 01:57:01;;;;;;;8.77;3.03;;;20.80;56.70;;;;;;4900660;29;20444;-79
2021/11/01 01:59:29;;;;;;;6.80;3.33;;;20.80;56.70;;;;;;4900324;29;20457;-80
2021/11/01 02:01:57;;;;;;;5.53;2.97;;;20.80;56.60;;;;;;4900343;29;20437;-80
2021/11/01 02:04:27;;;;;;;7.47;3.80;;;20.80;56.60;;;;;;4900562;29;20449;-80
2021/11/01 02:07:07;;;;;;;6.80;3.40;;;20.80;56.70;;;;;;4900954;29;20469;-80
2021/11/01 02:09:40;;;;;;;5.53;3.23;;;20.70;56.60;;;;;;4900294;29;20453;-80
2021/11/01 02:12:11;;;;;;;4.83;3.17;;;20.70;56.60;;;;;;4900406;29;20500;-80
2021/11/01 02:14:41;;;;;;;10.80;3.67;;;20.70;56.50;;;;;;4900223;29;20515;-79
2021/11/01 02:17:09;;;;;;;9.87;4.40;;;20.70;56.50;;;;;;4900698;29;20515;-80
2021/11/01 02:19:39;;;;;;;4.93;3.30;;;20.70;56.60;;;;;;4899838;29;20481;-79
2021/11/01 02:22:09;;;;;;;7.20;2.90;;;20.70;56.70;;;;;;4900335;29;20446;-80
2021/11/01 02:24:44;;;;;;;6.97;3.60;;;20.70;56.60;;;;;;4900461;29;20533;-79
2021/11/01 02:27:14;;;;;;;6.10;3.23;;;20.60;56.60;;;;;;4900236;29;20467;-81
2021/11/01 02:29:43;;;;;;;9.30;3.40;;;20.60;56.60;;;;;;4905696;29;20445;-80
2021/11/01 02:32:11;;;;;;;8.27;3.13;;;20.60;56.60;;;;;;4900754;29;20541;-80
2021/11/01 02:34:41;;;;;;;8.50;3.43;;;20.60;56.70;;;;;;4889273;29;20473;-80
2021/11/01 02:37:09;;;;;;;10.50;4.20;;;20.60;56.60;;;;;;4898471;29;20445;-80
2021/11/01 02:39:46;;;;;;;6.60;3.37;;;20.60;56.50;;;;;;4896356;29;20514;-79
2021/11/01 02:42:16;;;;;;;5.83;3.53;;;20.60;56.60;;;;;;4897577;29;20545;-80
2021/11/01 02:44:56;;;;;;;7.33;3.73;;;20.50;56.40;;;;;;4898402;29;20441;-81
2021/11/01 02:47:24;;;;;;;5.80;3.30;;;20.60;56.60;;;;;;4898388;29;20428;-79
2021/11/01 02:49:52;;;;;;;5.83;3.13;;;20.50;56.50;;;;;;4899519;29;20474;-79
2021/11/01 02:52:20;;;;;;;8.17;3.40;;;20.50;56.50;;;;;;4899535;29;20536;-79
2021/11/01 02:54:49;;;;;;;7.50;3.50;;;20.40;57.10;;;;;;4899644;29;20505;-79
2021/11/01 02:57:24;;;;;;;5.33;3.03;;;20.50;56.60;;;;;;4899510;29;20533;-80
2021/11/01 02:59:54;;;;;;;3.83;3.07;;;20.40;56.50;;;;;;4899431;29;20469;-79
2021/11/01 03:02:22;;;;;;;3.70;2.60;;;20.40;56.50;;;;;;4899379;29;20408;-80
2021/11/01 03:04:51;;;;;;;5.80;3.43;;;20.40;56.50;;;;;;4899217;29;20492;-80
2021/11/01 03:07:19;;;;;;;8.03;3.27;;;20.40;56.60;;;;;;4899516;29;20438;-80
2021/11/01 03:09:47;;;;;;;6.33;2.83;;;20.40;56.50;;;;;;4899515;29;20477;-81
2021/11/01 03:12:17;;;;;;;8.63;3.63;;;20.40;56.40;;;;;;4899007;29;20580;-79
2021/11/01 03:14:51;;;;;;;7.03;3.17;;;20.30;56.30;;;;;;4899631;29;20458;-80
2021/11/01 03:17:21;;;;;;;7.40;3.60;;;20.30;56.50;;;;;;4899307;29;20548;-81
2021/11/01 03:19:51;;;;;;;5.73;3.10;;;20.30;56.50;;;;;;4899471;29;20450;-80
2021/11/01 03:22:19;;;;;;;7.73;3.57;;;20.30;56.40;;;;;;4899616;29;20454;-80
2021/11/01 03:24:51;;;;;;;5.30;2.83;;;20.30;56.50;;;;;;4899264;29;20510;-79
2021/11/01 03:27:20;;;;;;;5.63;2.80;;;20.30;56.30;;;;;;4899060;29;20550;-81
2021/11/01 03:29:50;;;;;;;6.10;3.30;;;20.30;56.40;;;;;;4898947;29;20464;-81
2021/11/01 03:32:18;;;;;;;9.13;3.80;;;20.30;56.30;;;;;;4899253;29;20569;-80
2021/11/01 03:34:46;;;;;;;7.40;3.57;;;20.30;56.20;;;;;;4899272;29;20465;-79
2021/11/01 03:37:17;;;;;;;6.20;3.20;;;20.20;56.20;;;;;;4898561;29;20483;-81
2021/11/01 03:39:47;;;;;;;7.83;3.33;;;20.20;56.20;;;;;;4899464;29;20458;-80
2021/11/01 03:42:16;;;;;;;6.90;3.57;;;20.20;56.10;;;;;;4899215;29;20441;-80
2021/11/01 03:44:48;;;;;;;5.77;3.00;;;20.20;56.20;;;;;;4899106;29;20479;-80
2021/11/01 03:47:20;;;;;;;9.10;3.10;;;20.20;56.30;;;;;;4898522;29;20457;-80
2021/11/01 03:49:55;;;;;;;10.73;3.53;;;20.20;56.20;;;;;;4898694;29;20430;-80
2021/11/01 03:52:25;;;;;;;9.40;3.47;;;20.20;56.20;;;;;;4897515;29;20473;-80
2021/11/01 03:54:53;;;;;;;5.30;2.67;;;20.20;56.20;;;;;;4898404;29;20416;-81
2021/11/01 03:57:21;;;;;;;7.37;3.27;;;20.10;56.20;;;;;;4898528;29;20468;-80
2021/11/01 03:59:49;;;;;;;4.47;2.80;;;20.10;56.10;;;;;;4898561;29;20438;-80
2021/11/01 04:02:20;;;;;;;5.90;3.00;;;20.10;56.10;;;;;;4897557;29;20450;-80
2021/11/01 04:04:50;;;;;;;7.73;3.13;;;20.20;56.10;;;;;;4898577;29;20461;-83
2021/11/01 04:07:18;;;;;;;10.23;2.70;;;20.10;56.10;;;;;;4898784;29;20469;-80
2021/11/01 04:09:47;;;;;;;4.40;2.70;;;20.10;56.00;;;;;;4898899;29;20438;-80
2021/11/01 04:12:15;;;;;;;5.70;3.00;;;20.10;56.00;;;;;;4898022;29;20444;-81
2021/11/01 04:14:45;;;;;;;9.67;2.57;;;20.10;55.90;;;;;;4898067;29;20433;-81
2021/11/01 04:17:22;;;;;;;6.67;3.00;;;20.00;55.90;;;;;;4898241;29;20437;-81
2021/11/01 04:20:00;;;;;;;7.47;3.10;;;20.00;55.90;;;;;;4898276;29;20428;-80
2021/11/01 04:22:30;;;;;;;7.37;2.70;;;20.00;55.90;;;;;;4898153;29;20424;-81
2021/11/01 04:24:58;;;;;;;5.87;2.53;;;20.00;55.90;;;;;;4897781;29;20445;-81
2021/11/01 04:27:26;;;;;;;5.93;2.47;;;20.00;55.90;;;;;;4898018;29;20525;-80
2021/11/01 04:29:54;;;;;;;6.53;2.53;;;20.00;55.90;;;;;;4897888;29;20485;-80
2021/11/01 04:32:32;;;;;;;9.10;2.90;;;20.00;55.90;;;;;;4898353;29;20509;-80
2021/11/01 04:35:04;;;;;;;9.60;2.70;;;19.90;55.90;;;;;;4896420;29;20448;-81
2021/11/01 04:37:33;;;;;;;4.90;2.43;;;19.90;55.70;;;;;;4879273;29;20526;-81
2021/11/01 04:40:15;;;;;;;8.13;3.13;;;19.90;55.80;;;;;;4879143;29;20533;-79
2021/11/01 04:43:03;;;;;;;5.80;2.47;;;19.90;55.70;;;;;;4879540;29;20431;-79
2021/11/01 04:53:52;;;;;;;10.10;3.00;;;19.90;55.60;;;;;;4878501;29;20541;-80
2021/11/01 04:56:23;;;;;;;7.33;2.37;;;19.90;55.70;;;;;;4879084;29;20485;-81
2021/11/01 04:58:51;;;;;;;3.87;2.53;;;19.80;55.70;;;;;;4879445;29;20479;-80
2021/11/01 05:01:22;;;;;;;5.53;2.30;;;19.80;55.70;;;;;;4886694;29;20508;-77
2021/11/01 05:03:53;;;;;;;3.20;2.60;;;19.80;55.70;;;;;;4897018;29;20442;-77
2021/11/01 05:06:25;;;;;;;6.87;2.53;;;19.80;55.60;;;;;;4891984;29;20450;-77
2021/11/01 05:08:58;;;;;;;5.23;2.60;;;19.80;55.50;;;;;;4897091;29;20490;-76
2021/11/01 05:11:33;;;;;;;7.13;2.97;;;19.80;55.50;;;;;;4897549;29;20445;-77
2021/11/01 05:14:02;;;;;;;6.37;2.63;;;19.80;55.50;;;;;;4898048;29;20493;-77
2021/11/01 05:19:20;;;;;;;4.60;2.30;;;19.80;55.70;;;;;;4898808;29;20486;-77
2021/11/01 05:21:58;;;;;;;3.90;2.60;;;19.80;55.70;;;;;;4900957;29;20450;-77
2021/11/01 05:24:32;;;;;;;9.50;3.07;;;19.80;55.60;;;;;;4901074;29;20445;-74
2021/11/01 05:27:23;;;;;;;5.13;2.47;;;19.70;56.10;;;;;;4901283;29;20481;-75
2021/11/01 05:29:53;;;;;;;9.10;2.60;;;19.70;55.60;;;;;;4900924;29;20457;-76
2021/11/01 05:32:23;;;;;;;7.57;2.27;;;19.70;55.60;;;;;;4901413;29;20488;-76
2021/11/01 05:34:51;;;;;;;5.43;2.53;;;19.60;55.60;;;;;;4901021;29;20558;-76
2021/11/01 05:37:21;;;;;;;8.00;2.33;;;19.60;55.40;;;;;;4900966;29;20477;-76
2021/11/01 05:39:49;;;;;;;6.60;2.30;;;19.60;55.30;;;;;;4900790;29;20447;-76
2021/11/01 05:42:18;;;;;;;4.73;2.27;;;19.60;55.40;;;;;;4900940;29;20545;-75
2021/11/01 05:44:46;;;;;;;5.80;2.23;;;19.60;55.50;;;;;;4900936;29;20453;-76
2021/11/01 05:47:14;;;;;;;3.93;2.30;;;19.60;56.00;;;;;;4901051;29;20524;-75
2021/11/01 05:49:42;;;;;;;7.83;2.47;;;19.60;55.40;;;;;;4901274;29;20498;-76
2021/11/01 05:52:17;;;;;;;6.90;2.33;;;19.60;55.30;;;;;;4900804;29;20438;-75
2021/11/01 05:54:47;;;;;;;6.83;2.70;;;19.50;55.30;;;;;;4900706;29;20484;-75
2021/11/01 05:57:19;;;;;;;4.57;2.23;;;19.50;55.40;;;;;;4900983;29;20473;-75
2021/11/01 06:05:41;;;;;;;5.10;2.27;;;19.50;55.40;;;;;;4895590;29;20453;-75
2021/11/01 06:08:40;;;;;;;6.53;2.63;;;19.50;55.30;;;;;;4900385;29;20477;-76
2021/11/01 06:13:55;;;;;;;4.53;2.60;;;19.50;55.30;;;;;;4900331;29;20584;-75
2021/11/01 06:16:23;;;;;;;6.37;2.63;;;19.40;55.30;;;;;;4900478;29;20438;-76
2021/11/01 06:18:52;;;;;;;3.47;2.10;;;19.40;55.10;;;;;;4900127;29;20458;-75
2021/11/01 06:21:21;;;;;;;7.60;3.03;;;19.40;55.30;;;;;;4900354;29;20544;-75
2021/11/01 06:23:52;;;;;;;6.87;2.33;;;19.40;55.30;;;;;;4900129;29;20511;-76
2021/11/01 06:26:22;;;;;;;6.40;2.63;;;19.40;55.10;;;;;;4899429;29;20532;-76
2021/11/01 06:28:54;;;;;;;4.60;2.20;;;19.40;55.30;;;;;;4900084;29;20458;-76
2021/11/01 06:31:25;;;;;;;4.93;2.30;;;19.40;55.30;;;;;;4900207;29;20446;-76
2021/11/01 06:34:06;;;;;;;4.97;2.40;;;19.40;55.20;;;;;;4900218;29;20484;-76
2021/11/01 06:39:48;;;;;;;8.70;3.07;;;19.40;55.30;;;;;;4900310;29;20474;-75
2021/11/01 06:42:28;;;;;;;7.30;2.60;;;19.40;55.20;;;;;;4900167;29;20437;-75
2021/11/01 06:51:07;;;;;;;4.93;2.10;;;19.40;55.40;;;;;;4899623;29;20440;-76
2021/11/01 06:53:57;;;;;;;5.40;2.20;;;19.30;55.10;;;;;;4900040;29;20477;-76
2021/11/01 06:56:41;;;;;;;4.17;2.43;;;19.30;55.30;;;;;;4899777;29;20511;-76
2021/11/01 07:16:13;;;;;;;7.97;2.87;;;19.30;55.40;;;;;;4880635;29;20515;-75
2021/11/01 07:18:47;;;;;;;5.80;2.43;;;19.30;55.40;;;;;;4880859;29;20446;-75
2021/11/01 07:21:32;;;;;;;5.00;2.67;;;19.30;55.30;;;;;;4880513;29;20533;-75
2021/11/01 08:22:45;;;;;;;5.67;2.70;;;20.20;54.40;;;;;;4879266;29;20486;-76
2021/11/01 08:28:11;;;;;;;10.77;2.80;;;20.40;54.40;;;;;;4879176;29;20492;-76
2021/11/01 08:39:24;;;;;;;4.93;2.37;;;21.10;54.10;;;;;;4875040;29;20457;-76
2021/11/01 08:44:56;;;;;;;6.60;2.60;;;21.30;53.50;;;;;;4903957;29;20602;-76
2021/11/01 09:01:42;;;;;;;3.77;2.30;;;21.60;53.80;;;;;;4907673;29;20497;-77
2021/11/01 09:04:20;;;;;;;6.63;2.63;;;21.70;53.60;;;;;;4906360;29;20441;-77
2021/11/01 09:10:03;;;;;;;6.33;2.63;;;22.10;53.60;;;;;;4905990;29;20438;-77
2021/11/01 09:20:47;;;;;;;3.83;2.07;;;22.90;52.80;;;;;;4903933;29;20448;-77
2021/11/01 09:23:38;;;;;;;4.60;2.20;;;23.10;52.40;;;;;;4904711;29;20424;-77
2021/11/01 09:26:09;;;;;;;7.13;3.07;;;23.20;52.30;;;;;;4905017;29;20419;-76
2021/11/01 09:28:43;;;;;;;7.50;2.23;;;23.30;52.10;;;;;;4906910;29;20495;-76
2021/11/01 09:36:47;;;;;;;4.37;2.33;;;23.70;51.60;;;;;;4902654;29;20474;-76
2021/11/01 09:39:31;;;;;;;4.70;2.23;;;23.60;51.60;;;;;;4897746;29;20450;-76
2021/11/01 09:42:00;;;;;;;5.27;2.43;;;23.50;51.40;;;;;;4885789;29;20406;-77
2021/11/01 09:44:31;;;;;;;4.87;2.33;;;23.40;51.60;;;;;;4879022;29;20445;-76
2021/11/01 09:47:01;;;;;;;6.60;2.87;;;23.40;51.70;;;;;;4895046;29;20517;-76
2021/11/01 09:49:29;;;;;;;5.77;2.60;;;23.40;51.90;;;;;;4893248;29;20421;-76
2021/11/01 09:51:59;;;;;;;4.10;2.20;;;23.50;52.00;;;;;;4897288;29;20447;-76
2021/11/01 09:54:27;;;;;;;8.50;2.30;;;23.60;52.00;;;;;;4897424;29;20466;-77
2021/11/01 09:56:59;;;;;;;5.67;2.10;;;23.70;51.90;;;;;;4897355;29;20469;-76
2021/11/01 09:59:27;;;;;;;5.60;2.23;;;23.80;51.70;;;;;;4897937;29;20496;-76
2021/11/01 10:01:57;;;;;;;4.20;2.07;;;23.90;51.40;;;;;;4899339;29;20505;-76
2021/11/01 10:04:25;;;;;;;5.17;2.20;;;23.90;51.20;;;;;;4901181;29;20473;-76
2021/11/01 10:07:06;;;;;;;7.10;2.40;;;23.80;51.20;;;;;;4900329;29;20436;-76
2021/11/01 10:09:35;;;;;;;4.27;2.17;;;23.80;51.80;;;;;;4900135;29;20450;-77
2021/11/01 10:12:03;;;;;;;5.43;2.77;;;23.90;51.60;;;;;;4900559;29;20441;-76
2021/11/01 10:14:31;;;;;;;11.07;2.30;;;24.00;51.20;;;;;;4901180;29;20449;-76
2021/11/01 10:19:45;;;;;;;5.60;2.10;;;24.00;51.00;;;;;;4900327;29;20420;-76
2021/11/01 10:22:22;;;;;;;6.47;1.93;;;24.20;51.10;;;;;;4900596;29;20420;-77
2021/11/01 10:24:51;;;;;;;11.67;2.57;;;24.20;50.70;;;;;;4900259;29;20529;-77
2021/11/01 10:27:28;;;;;;;5.17;2.33;;;24.40;50.90;;;;;;4900321;29;20417;-77
2021/11/01 10:29:57;;;;;;;7.67;2.23;;;24.50;50.40;;;;;;4900269;29;20427;-76
2021/11/01 10:32:39;;;;;;;2.87;2.40;;;24.80;50.60;;;;;;4900301;29;20481;-77
2021/11/01 10:35:17;;;;;;;5.43;2.00;;;25.00;50.40;;;;;;4881298;29;20493;-77
2021/11/01 10:38:08;;;;;;;6.40;2.90;;;25.20;50.10;;;;;;4883024;29;20493;-77
2021/11/01 10:40:39;;;;;;;2.50;1.93;;;25.50;49.70;;;;;;4897475;29;20476;-77
2021/11/01 10:43:21;;;;;;;1.97;1.83;;;25.80;49.80;;;;;;4891909;29;20451;-77
2021/11/01 10:57:20;;;;;;;3.00;2.13;;;26.30;47.60;;;;;;4894609;29;20479;-77
2021/11/01 11:11:06;;;;;;;3.93;1.80;;;26.30;47.20;;;;;;4891549;29;20487;-78
2021/11/01 11:13:39;;;;;;;2.33;2.03;;;26.60;47.80;;;;;;4892943;29;20432;-78
2021/11/01 11:16:09;;;;;;;8.57;2.17;;;27.10;47.60;;;;;;4888902;29;20457;-78
2021/11/01 11:18:52;;;;;;;3.03;1.80;;;27.50;46.50;;;;;;4891223;29;20478;-77
2021/11/01 11:21:43;;;;;;;4.90;1.90;;;27.90;45.90;;;;;;4890755;29;20470;-78
2021/11/01 11:27:32;;;;;;;5.40;1.90;;;28.60;44.70;;;;;;4842334;29;20448;-77
2021/11/01 11:30:25;;;;;;;2.50;1.70;;;28.90;44.40;;;;;;4894150;29;20556;-77
2021/11/01 11:47:23;;;;;;;2.80;1.67;;;28.70;42.80;;;;;;4899096;29;20484;-76
2021/11/01 11:49:51;;;;;;;3.30;1.33;;;28.60;43.00;;;;;;4899826;29;20464;-76
2021/11/01 11:52:21;;;;;;;2.43;1.70;;;28.60;42.60;;;;;;4899127;29;20452;-77
2021/11/01 11:54:54;;;;;;;3.73;1.80;;;28.40;42.40;;;;;;4891448;29;20450;-77
2021/11/01 12:01:36;;;;;;;1.57;1.47;;;28.80;42.90;;;;;;4894771;29;20421;-76
2021/11/01 12:04:07;;;;;;;2.10;1.50;;;29.40;41.80;;;;;;4891363;29;20449;-76
2021/11/01 12:06:46;;;;;;;5.23;1.83;;;29.60;41.80;;;;;;4897197;29;20473;-77
2021/11/01 12:09:20;;;;;;;1.57;1.47;;;29.60;41.60;;;;;;4891244;29;20452;-76
2021/11/01 12:12:31;;;;;;;2.60;1.57;;;29.50;41.00;;;;;;4896394;29;20452;-77
2021/11/01 12:17:47;;;;;;;3.23;1.53;;;29.90;40.40;;;;;;4865772;29;20568;-77
2021/11/01 12:20:15;;;;;;;2.40;1.47;;;30.20;39.90;;;;;;4898297;29;20481;-77
2021/11/01 12:22:49;;;;;;;5.40;1.50;;;30.50;39.50;;;;;;4898023;29;20536;-77
2021/11/01 12:25:21;;;;;;;3.13;1.63;;;30.30;39.10;;;;;;4898212;29;20509;-77
2021/11/01 12:28:00;;;;;;;5.00;1.83;;;30.00;39.00;;;;;;4898662;29;20486;-77
2021/11/01 12:30:38;;;;;;;2.30;1.30;;;29.90;39.80;;;;;;4897931;29;20517;-77
2021/11/01 12:33:07;;;;;;;2.23;1.53;;;29.80;39.30;;;;;;4891535;29;20443;-77
2021/11/01 12:35:36;;;;;;;3.93;1.73;;;29.60;40.10;;;;;;4887197;29;20446;-77
2021/11/01 12:38:07;;;;;;;3.13;1.87;;;29.40;39.70;;;;;;4897424;29;20517;-77
2021/11/01 12:40:44;;;;;;;3.10;1.50;;;29.10;39.90;;;;;;4898132;29;20544;-77
2021/11/01 12:43:47;;;;;;;3.37;1.40;;;28.80;41.00;;;;;;4892513;29;20460;-77
2021/11/01 12:49:23;;;;;;;3.23;1.47;;;29.00;41.50;;;;;;4888393;29;20449;-76
2021/11/01 12:57:25;;;;;;;8.93;2.40;;;29.80;42.50;;;;;;4896914;29;20516;-77
2021/11/01 12:59:55;;;;;;;10.43;2.93;;;29.40;42.90;;;;;;4888840;29;20498;-77
2021/11/01 13:02:32;;;;;;;4.97;2.40;;;29.10;43.40;;;;;;4887673;29;20469;-77
2021/11/01 13:05:04;;;;;;;5.77;2.80;;;29.00;44.10;;;;;;4897736;29;20583;-77
2021/11/01 13:07:48;;;;;;;9.03;2.87;;;28.70;44.60;;;;;;4900496;29;20460;-77
2021/11/01 13:10:21;;;;;;;5.00;2.70;;;28.60;44.80;;;;;;4896780;29;20493;-76
2021/11/01 13:19:08;;;;;;;4.37;2.73;;;28.50;45.80;;;;;;4897473;29;20527;-77
2021/11/01 13:21:41;;;;;;;5.30;3.07;;;28.40;45.90;;;;;;4898017;29;20434;-77
2021/11/01 13:24:11;;;;;;;5.90;3.10;;;28.20;46.00;;;;;;4897639;29;20433;-77
2021/11/01 13:34:42;;;;;;;3.37;2.23;;;27.90;46.20;;;;;;4895135;29;20521;-77
2021/11/01 13:35:17;;;;;;;3.83;2.57;;;27.60;46.60;;;;;;4898653;29;20528;-77
2021/11/01 13:37:49;;;;;;;4.53;2.50;;;27.50;46.80;;;;;;4901699;29;20540;-76
2021/11/01 13:40:21;;;;;;;7.83;2.97;;;27.40;47.00;;;;;;4900537;29;20460;-77
2021/11/01 13:42:55;;;;;;;8.90;2.90;;;27.30;47.50;;;;;;4901392;29;20441;-77
2021/11/01 13:45:23;;;;;;;6.00;2.40;;;27.20;47.60;;;;;;4900568;29;20529;-78
2021/11/01 13:47:53;;;;;;;5.90;2.50;;;27.30;48.10;;;;;;4901477;29;20477;-78
2021/11/01 13:50:21;;;;;;;10.07;2.77;;;27.30;47.90;;;;;;4901151;29;20449;-76
2021/11/01 13:52:56;;;;;;;4.30;2.57;;;27.30;48.00;;;;;;4900901;29;20485;-77
2021/11/01 13:55:33;;;;;;;4.63;2.90;;;27.20;48.00;;;;;;4901230;29;20455;-76
2021/11/01 13:58:05;;;;;;;6.93;2.90;;;27.00;48.00;;;;;;4900679;29;20515;-77
2021/11/01 14:00:50;;;;;;;7.10;3.20;;;27.00;48.10;;;;;;4900109;29;20424;-77
2021/11/01 14:11:59;;;;;;;7.43;2.63;;;26.70;49.10;;;;;;4824934;29;20485;-78
2021/11/01 14:17:17;;;;;;;6.63;3.00;;;26.50;49.40;;;;;;4864586;29;20513;-77
2021/11/01 14:28:22;;;;;;;16.00;3.77;;;26.40;50.00;;;;;;4901951;29;20525;-77
2021/11/01 15:07:49;;;;;;;5.60;2.33;;;26.20;49.10;;;;;;4900428;29;20521;-77
2021/11/01 15:13:46;;;;;;;5.80;1.90;;;25.80;48.10;;;;;;4899341;29;20486;-78
2021/11/01 15:19:10;;;;;;;2.60;1.37;;;23.90;42.70;;;;;;4880034;29;20479;-78
2021/11/01 15:21:48;;;;;;;5.23;1.50;;;23.30;42.20;;;;;;4887255;29;20458;-77
2021/11/01 15:35:46;;;;;;;21.17;2.53;;;23.20;46.00;;;;;;4898099;29;20481;-74
2021/11/01 15:38:31;;;;;;;11.20;1.67;;;23.80;46.60;;;;;;4897921;29;20490;-74
2021/11/01 15:41:40;;;;;;;15.87;1.70;;;24.00;46.30;;;;;;4892464;29;20493;-75
2021/11/01 16:18:31;;;;;;;8.67;1.93;;;25.00;50.00;;;;;;4896849;29;20456;-77
2021/11/01 16:20:59;;;;;;;5.20;1.67;;;25.00;50.00;;;;;;4899562;29;20434;-80
2021/11/01 16:26:23;;;;;;;8.13;1.60;;;25.10;49.80;;;;;;4899292;29;20453;-77
2021/11/01 16:28:57;;;;;;;10.50;2.20;;;25.00;49.70;;;;;;4898834;29;20489;-76
2021/11/01 16:31:33;;;;;;;7.70;1.77;;;25.00;49.80;;;;;;4898851;29;20409;-75
2021/11/01 16:34:07;;;;;;;14.13;1.60;;;25.10;50.00;;;;;;4899355;29;20407;-75
2021/11/01 16:37:01;;;;;;;8.03;1.80;;;25.00;50.10;;;;;;4898504;29;20420;-75
2021/11/01 16:39:42;;;;;;;12.33;2.03;;;25.00;50.10;;;;;;4898548;29;20464;-75
2021/11/01 16:42:30;;;;;;;6.23;1.70;;;25.00;50.20;;;;;;4898727;29;20453;-76
2021/11/01 16:45:03;;;;;;;6.73;2.17;;;25.00;50.30;;;;;;4898188;29;20428;-77
2021/11/01 16:47:32;;;;;;;9.37;1.97;;;25.00;50.40;;;;;;4898115;29;20458;-75
2021/11/01 16:50:00;;;;;;;8.13;1.90;;;25.00;50.30;;;;;;4898567;29;20488;-74
2021/11/01 16:52:28;;;;;;;5.57;1.77;;;25.10;50.50;;;;;;4891757;29;20467;-78
2021/11/01 16:58:46;;;;;;;10.03;1.90;;;24.90;50.50;;;;;;4886194;29;20435;-75
2021/11/01 17:01:20;;;;;;;7.40;1.80;;;24.60;50.30;;;;;;4893350;29;20478;-75
2021/11/01 17:03:53;;;;;;;8.90;1.90;;;24.40;50.90;;;;;;4897667;29;20492;-75
2021/11/01 17:06:26;;;;;;;3.97;1.77;;;24.20;50.50;;;;;;4905154;29;20438;-74
2021/11/01 17:22:49;;;;;;;5.10;1.70;;;23.40;51.00;;;;;;4920227;29;20528;-74
2021/11/01 17:25:22;;;;;;;4.60;1.87;;;23.30;51.10;;;;;;4920390;29;20528;-75
2021/11/01 17:28:15;;;;;;;7.20;1.60;;;23.10;51.20;;;;;;4919274;29;20537;-75
2021/11/01 17:30:57;;;;;;;5.10;1.60;;;23.10;51.20;;;;;;4919957;29;20492;-75
2021/11/01 18:37:53;;;;;;;3.57;1.43;;;21.50;52.40;;;;;;4900108;29;20536;-75
2021/11/01 18:40:37;;;;;;;4.33;1.77;;;21.50;51.90;;;;;;4899603;29;20560;-74
2021/11/01 18:46:12;;;;;;;5.03;2.10;;;21.40;51.90;;;;;;4885203;29;20751;-74
2021/11/01 18:51:29;;;;;;;3.97;1.83;;;21.30;51.80;;;;;;4881500;29;20530;-74
2021/11/01 18:54:02;;;;;;;3.93;1.67;;;21.40;51.90;;;;;;4881056;29;20445;-74
2021/11/01 18:56:34;;;;;;;3.03;1.90;;;21.30;51.80;;;;;;4881185;29;20497;-74
2021/11/01 18:59:04;;;;;;;5.50;1.77;;;21.20;51.70;;;;;;4880322;29;20457;-75
2021/11/01 19:01:33;;;;;;;4.93;1.97;;;21.20;51.80;;;;;;4881300;29;20417;-75
2021/11/01 19:04:03;;;;;;;3.37;2.07;;;21.20;51.90;;;;;;4881075;29;20482;-74
2021/11/01 19:06:38;;;;;;;5.37;2.03;;;21.20;52.40;;;;;;4881343;29;20506;-74
2021/11/01 19:09:20;;;;;;;2.67;1.57;;;21.20;51.80;;;;;;4881099;29;20502;-75
2021/11/01 20:04:47;;;;;;;4.43;2.03;;;20.60;52.50;;;;;;4880271;29;20447;-74
2021/11/01 20:10:17;;;;;;;1.77;1.67;;;20.50;52.50;;;;;;4880143;29;20533;-75
2021/11/01 21:25:07;;;;;;;1.90;1.80;;;20.00;52.60;;;;;;4879106;29;20439;-76
2021/11/01 21:27:36;;;;;;;2.50;2.30;;;20.00;52.60;;;;;;4878474;29;20520;-74
2021/11/01 21:30:05;;;;;;;2.30;2.10;;;20.00;52.60;;;;;;4878953;29;20489;-75
2021/11/01 21:32:33;;;;;;;2.40;2.20;;;20.00;52.60;;;;;;4879440;29;20463;-73
2021/11/01 21:35:03;;;;;;;2.43;1.60;;;20.00;52.60;;;;;;4879283;29;20450;-74
2021/11/01 21:37:31;;;;;;;4.20;2.30;;;20.00;52.60;;;;;;4878564;29;20514;-74
2021/11/01 21:40:01;;;;;;;3.20;1.80;;;20.00;52.50;;;;;;4879060;29;20550;-75
2021/11/01 21:42:29;;;;;;;3.87;2.00;;;20.00;52.60;;;;;;4878796;29;20508;-75
2021/11/01 21:44:58;;;;;;;2.97;2.13;;;20.00;52.60;;;;;;4884515;29;20534;-74
2021/11/01 21:47:26;;;;;;;5.07;2.60;;;20.00;52.60;;;;;;4896983;29;20505;-75
2021/11/01 21:49:55;;;;;;;2.57;2.17;;;20.00;52.60;;;;;;4897540;29;20517;-75
2021/11/01 21:52:26;;;;;;;2.63;1.90;;;20.00;52.40;;;;;;4895463;29;20508;-74
2021/11/01 21:54:56;;;;;;;1.83;1.70;;;20.00;52.40;;;;;;4908963;29;20464;-75
2021/11/01 21:57:29;;;;;;;2.23;2.03;;;20.00;52.30;;;;;;4906196;29;20526;-75
2021/11/01 22:17:34;;;;;;;3.87;1.90;;;19.90;52.40;;;;;;4899451;29;20476;-73
2021/11/01 22:20:06;;;;;;;3.47;2.50;;;20.00;52.50;;;;;;4900354;29;20512;-74
2021/11/01 22:22:43;;;;;;;1.80;1.70;;;20.00;52.40;;;;;;4900179;29;20434;-75
2021/11/01 22:25:16;;;;;;;2.40;2.20;;;20.00;52.40;;;;;;4900382;29;20452;-75
2021/11/01 22:33:41;;;;;;;2.30;1.90;;;20.00;52.30;;;;;;4899624;29;20645;-75
2021/11/01 22:39:06;;;;;;;3.53;1.80;;;19.90;52.20;;;;;;4900036;29;20484;-75
2021/11/01 22:41:48;;;;;;;5.97;2.20;;;20.00;52.30;;;;;;4896818;29;20560;-73
2021/11/01 22:44:36;;;;;;;4.93;2.17;;;19.90;52.40;;;;;;4884230;29;20445;-76
2021/11/01 22:47:22;;;;;;;2.77;2.27;;;19.90;52.30;;;;;;4899949;29;20494;-75
2021/11/01 22:55:43;;;;;;;4.57;2.20;;;19.90;52.30;;;;;;4880429;29;20513;-75
2021/11/01 22:58:12;;;;;;;2.83;2.60;;;19.90;52.30;;;;;;4896805;29;20541;-75